TVF38ZQ LGIR-LFLL
Flight info
| Callsign | TVF38ZQ |
|---|---|
| Flight time | 2h 50m |
| Altitude | 38000 |
| Route | EPALO M749 DIRMI UL613 KOR DCT TIGRA DCT BAR DCT PES DCT LOMED DCT TOP/N0395F280 DCT RONOP/N0370F240 DCT GIGUS Z40 AMVAR |
| Aircraft | B738/M-SDFGHIJ1RWXY/LB1 |
Departure
| Time | 2026-05-06 18:32 |
|---|---|
| Airport | Heraklion International Nikos Kazantzakis Airport (LGIR) |
Arrival
| Time | 2026-05-06 21:23 |
|---|---|
| Airport | Lyon Saint-Exupéry Airport (LFLL) |
| Time | Latitude | Longitude | Altitude | Speed | Heading |
|---|---|---|---|---|---|
| 2026-05-06 17:56 | 35.33903 | 25.16915 | 90 ft | 0 kts | 316° |
| 2026-05-06 18:25 | 35.33919 | 25.16914 | 91 ft | 5 kts | 4° |
| 2026-05-06 18:25 | 35.33950 | 25.16963 | 89 ft | 11 kts | 86° |
| 2026-05-06 18:26 | 35.33942 | 25.17072 | 91 ft | 15 kts | 95° |
| 2026-05-06 18:26 | 35.33934 | 25.17194 | 89 ft | 14 kts | 95° |
| 2026-05-06 18:26 | 35.33926 | 25.17311 | 92 ft | 13 kts | 95° |
| 2026-05-06 18:26 | 35.33917 | 25.17423 | 90 ft | 13 kts | 94° |
| 2026-05-06 18:27 | 35.33910 | 25.17531 | 93 ft | 13 kts | 95° |
| 2026-05-06 18:27 | 35.33903 | 25.17637 | 92 ft | 12 kts | 95° |
| 2026-05-06 18:27 | 35.33896 | 25.17740 | 93 ft | 12 kts | 95° |
| 2026-05-06 18:27 | 35.33888 | 25.17849 | 92 ft | 14 kts | 95° |
| 2026-05-06 18:28 | 35.33878 | 25.17987 | 92 ft | 18 kts | 95° |
| 2026-05-06 18:28 | 35.33867 | 25.18149 | 93 ft | 20 kts | 95° |
| 2026-05-06 18:28 | 35.33854 | 25.18335 | 93 ft | 24 kts | 95° |
| 2026-05-06 18:28 | 35.33840 | 25.18547 | 93 ft | 25 kts | 95° |
| 2026-05-06 18:29 | 35.33828 | 25.18711 | 89 ft | 17 kts | 95° |
| 2026-05-06 18:29 | 35.33819 | 25.18837 | 89 ft | 3 kts | 95° |
| 2026-05-06 18:29 | 35.33818 | 25.18856 | 89 ft | 3 kts | 95° |
| 2026-05-06 18:29 | 35.33816 | 25.18910 | 89 ft | 9 kts | 82° |
| 2026-05-06 18:30 | 35.33857 | 25.18997 | 88 ft | 14 kts | 56° |
| 2026-05-06 18:30 | 35.33897 | 25.19050 | 88 ft | 10 kts | 11° |
| 2026-05-06 18:30 | 35.33909 | 25.19000 | 88 ft | 5 kts | 272° |
| 2026-05-06 18:30 | 35.33909 | 25.18990 | 89 ft | 0 kts | 274° |
| 2026-05-06 18:31 | 35.33909 | 25.18988 | 89 ft | 0 kts | 274° |
| 2026-05-06 18:31 | 35.33912 | 25.18948 | 86 ft | 19 kts | 274° |
| 2026-05-06 18:31 | 35.33946 | 25.18453 | 92 ft | 97 kts | 275° |
| 2026-05-06 18:32 | 35.33992 | 25.17779 | 92 ft | 142 kts | 275° |
| 2026-05-06 18:32 | 35.34089 | 25.16401 | 479 ft | 167 kts | 275° |
| 2026-05-06 18:32 | 35.34321 | 25.14995 | 1276 ft | 174 kts | 302° |
| 2026-05-06 18:32 | 35.35625 | 25.14031 | 2450 ft | 170 kts | 342° |
| 2026-05-06 18:33 | 35.36762 | 25.13650 | 3263 ft | 171 kts | 345° |
| 2026-05-06 18:33 | 35.37553 | 25.13395 | 3614 ft | 186 kts | 344° |
| 2026-05-06 18:33 | 35.38911 | 25.12939 | 3872 ft | 217 kts | 344° |
| 2026-05-06 18:33 | 35.40455 | 25.12416 | 4124 ft | 243 kts | 344° |
| 2026-05-06 18:34 | 35.42156 | 25.11833 | 4599 ft | 260 kts | 343° |
| 2026-05-06 18:34 | 35.43900 | 25.11220 | 5544 ft | 260 kts | 344° |
| 2026-05-06 18:34 | 35.46210 | 25.10391 | 6740 ft | 263 kts | 344° |
| 2026-05-06 18:34 | 35.47970 | 25.09749 | 7608 ft | 265 kts | 343° |
| 2026-05-06 18:35 | 35.49166 | 25.09311 | 8182 ft | 267 kts | 343° |
| 2026-05-06 18:35 | 35.50932 | 25.08664 | 9014 ft | 270 kts | 343° |
| 2026-05-06 18:35 | 35.52739 | 25.07998 | 9876 ft | 273 kts | 343° |
| 2026-05-06 18:35 | 35.54566 | 25.07323 | 10661 ft | 275 kts | 343° |
| 2026-05-06 18:36 | 35.56409 | 25.06642 | 11450 ft | 277 kts | 342° |
| 2026-05-06 18:36 | 35.58264 | 25.05954 | 12237 ft | 280 kts | 342° |
| 2026-05-06 18:36 | 35.60137 | 25.05260 | 13023 ft | 283 kts | 342° |
| 2026-05-06 18:36 | 35.62029 | 25.04558 | 13813 ft | 285 kts | 342° |
| 2026-05-06 18:37 | 35.63939 | 25.03849 | 14524 ft | 288 kts | 341° |
| 2026-05-06 18:37 | 35.65836 | 25.03144 | 15234 ft | 290 kts | 341° |
| 2026-05-06 18:37 | 35.67773 | 25.02424 | 15952 ft | 292 kts | 341° |
| 2026-05-06 18:37 | 35.69725 | 25.01699 | 16658 ft | 294 kts | 341° |
| 2026-05-06 18:38 | 35.71703 | 25.00958 | 17191 ft | 304 kts | 340° |
| 2026-05-06 18:38 | 35.73767 | 25.00061 | 17327 ft | 325 kts | 338° |
| 2026-05-06 18:38 | 35.75938 | 24.99033 | 17478 ft | 344 kts | 337° |
| 2026-05-06 18:38 | 35.78227 | 24.97935 | 17677 ft | 360 kts | 337° |
| 2026-05-06 18:39 | 35.80592 | 24.96805 | 18162 ft | 367 kts | 338° |
| 2026-05-06 18:39 | 35.82953 | 24.95684 | 18753 ft | 370 kts | 338° |
| 2026-05-06 18:39 | 35.85362 | 24.94546 | 19336 ft | 372 kts | 338° |
| 2026-05-06 18:40 | 35.90238 | 24.92249 | 20416 ft | 379 kts | 338° |
| 2026-05-06 18:40 | 35.92710 | 24.91084 | 20938 ft | 382 kts | 338° |
| 2026-05-06 18:40 | 35.95203 | 24.89910 | 21455 ft | 385 kts | 338° |
| 2026-05-06 18:40 | 35.97716 | 24.88725 | 21981 ft | 388 kts | 338° |
| 2026-05-06 18:41 | 36.00243 | 24.87533 | 22525 ft | 390 kts | 338° |
| 2026-05-06 18:41 | 36.02788 | 24.86331 | 23011 ft | 393 kts | 338° |
| 2026-05-06 18:41 | 36.05302 | 24.84969 | 23468 ft | 397 kts | 331° |
| 2026-05-06 18:41 | 36.07603 | 24.83147 | 23886 ft | 400 kts | 322° |
| 2026-05-06 18:42 | 36.09781 | 24.80993 | 24322 ft | 402 kts | 321° |
| 2026-05-06 18:42 | 36.11952 | 24.78808 | 24742 ft | 404 kts | 321° |
| 2026-05-06 18:42 | 36.14133 | 24.76611 | 25153 ft | 406 kts | 321° |
| 2026-05-06 18:42 | 36.16335 | 24.74402 | 25559 ft | 408 kts | 321° |
| 2026-05-06 18:43 | 36.18548 | 24.72190 | 25947 ft | 410 kts | 321° |
| 2026-05-06 18:43 | 36.20777 | 24.69969 | 26332 ft | 412 kts | 321° |
| 2026-05-06 18:43 | 36.22990 | 24.67767 | 26704 ft | 415 kts | 321° |
| 2026-05-06 18:43 | 36.25243 | 24.65527 | 27088 ft | 416 kts | 321° |
| 2026-05-06 18:44 | 36.27500 | 24.63281 | 27535 ft | 416 kts | 321° |
| 2026-05-06 18:44 | 36.29763 | 24.61027 | 27904 ft | 418 kts | 321° |
| 2026-05-06 18:44 | 36.32037 | 24.58761 | 28222 ft | 421 kts | 321° |
| 2026-05-06 18:44 | 36.34327 | 24.56477 | 28540 ft | 423 kts | 321° |
| 2026-05-06 18:45 | 36.36624 | 24.54184 | 28894 ft | 425 kts | 320° |
| 2026-05-06 18:45 | 36.38930 | 24.51879 | 29231 ft | 427 kts | 320° |
| 2026-05-06 18:45 | 36.41248 | 24.49561 | 29553 ft | 429 kts | 320° |
| 2026-05-06 18:45 | 36.43576 | 24.47232 | 29862 ft | 431 kts | 320° |
| 2026-05-06 18:46 | 36.45883 | 24.44922 | 30155 ft | 432 kts | 320° |
| 2026-05-06 18:46 | 36.48222 | 24.42578 | 30510 ft | 431 kts | 320° |
| 2026-05-06 18:46 | 36.50548 | 24.40243 | 30928 ft | 429 kts | 320° |
| 2026-05-06 18:46 | 36.52861 | 24.37918 | 31320 ft | 427 kts | 320° |
| 2026-05-06 18:47 | 36.55173 | 24.35592 | 31610 ft | 428 kts | 320° |
| 2026-05-06 18:47 | 36.57483 | 24.33265 | 31955 ft | 427 kts | 320° |
| 2026-05-06 18:47 | 36.59784 | 24.30947 | 32352 ft | 425 kts | 320° |
| 2026-05-06 18:47 | 36.62073 | 24.28639 | 32735 ft | 423 kts | 320° |
| 2026-05-06 18:48 | 36.64355 | 24.26335 | 33067 ft | 422 kts | 320° |
| 2026-05-06 18:48 | 36.66604 | 24.24063 | 33373 ft | 422 kts | 320° |
| 2026-05-06 18:48 | 36.68878 | 24.21764 | 33708 ft | 420 kts | 320° |
| 2026-05-06 18:48 | 36.71144 | 24.19472 | 34072 ft | 419 kts | 320° |
| 2026-05-06 18:49 | 36.73403 | 24.17185 | 34346 ft | 418 kts | 320° |
| 2026-05-06 18:49 | 36.75663 | 24.14894 | 34556 ft | 419 kts | 320° |
| 2026-05-06 18:49 | 36.77927 | 24.12598 | 34753 ft | 420 kts | 320° |
| 2026-05-06 18:49 | 36.80194 | 24.10297 | 35000 ft | 420 kts | 319° |
| 2026-05-06 18:50 | 36.82456 | 24.07999 | 35260 ft | 419 kts | 320° |
| 2026-05-06 18:50 | 36.84684 | 24.05734 | 35528 ft | 418 kts | 320° |
| 2026-05-06 18:50 | 36.86941 | 24.03438 | 35708 ft | 419 kts | 319° |
| 2026-05-06 18:50 | 36.89205 | 24.01133 | 35886 ft | 420 kts | 319° |
| 2026-05-06 18:51 | 36.91473 | 23.98823 | 36117 ft | 420 kts | 319° |
| 2026-05-06 18:51 | 36.93737 | 23.96518 | 36353 ft | 420 kts | 319° |
| 2026-05-06 18:51 | 36.96001 | 23.94212 | 36547 ft | 420 kts | 319° |
| 2026-05-06 18:51 | 36.98268 | 23.91901 | 36727 ft | 421 kts | 319° |
| 2026-05-06 18:52 | 37.00536 | 23.89587 | 36937 ft | 421 kts | 319° |
| 2026-05-06 18:52 | 37.02803 | 23.87272 | 37143 ft | 421 kts | 319° |
| 2026-05-06 18:52 | 37.05038 | 23.84987 | 37318 ft | 421 kts | 319° |
| 2026-05-06 18:52 | 37.07309 | 23.82664 | 37496 ft | 421 kts | 319° |
| 2026-05-06 18:53 | 37.09577 | 23.80342 | 37692 ft | 421 kts | 319° |
| 2026-05-06 18:53 | 37.11846 | 23.78017 | 37894 ft | 421 kts | 319° |
| 2026-05-06 18:53 | 37.14114 | 23.75691 | 38038 ft | 422 kts | 319° |
| 2026-05-06 18:54 | 37.18678 | 23.71005 | 38066 ft | 425 kts | 319° |
| 2026-05-06 18:54 | 37.23226 | 23.66328 | 38062 ft | 421 kts | 319° |
| 2026-05-06 18:55 | 37.27710 | 23.61710 | 38065 ft | 418 kts | 319° |
| 2026-05-06 18:55 | 37.32193 | 23.57084 | 38067 ft | 416 kts | 319° |
| 2026-05-06 18:56 | 37.36657 | 23.52471 | 38069 ft | 415 kts | 319° |
| 2026-05-06 18:56 | 37.41114 | 23.47857 | 38076 ft | 415 kts | 319° |
| 2026-05-06 18:57 | 37.45576 | 23.43231 | 38075 ft | 416 kts | 319° |
| 2026-05-06 18:57 | 37.50019 | 23.38618 | 38069 ft | 418 kts | 319° |
| 2026-05-06 18:58 | 37.54508 | 23.33949 | 38081 ft | 419 kts | 319° |
| 2026-05-06 18:58 | 37.59007 | 23.29262 | 38060 ft | 420 kts | 319° |
| 2026-05-06 18:59 | 37.63516 | 23.24558 | 38067 ft | 421 kts | 319° |
| 2026-05-06 18:59 | 37.68003 | 23.19869 | 38090 ft | 422 kts | 319° |
| 2026-05-06 19:00 | 37.72527 | 23.15132 | 38078 ft | 423 kts | 319° |
| 2026-05-06 19:00 | 37.77048 | 23.10387 | 38072 ft | 422 kts | 319° |
| 2026-05-06 19:01 | 37.81564 | 23.05648 | 38087 ft | 422 kts | 319° |
| 2026-05-06 19:01 | 37.86044 | 23.00936 | 38075 ft | 421 kts | 319° |
| 2026-05-06 19:02 | 37.90544 | 22.96195 | 38067 ft | 420 kts | 318° |
| 2026-05-06 19:02 | 37.94624 | 22.90963 | 38068 ft | 417 kts | 305° |
| 2026-05-06 19:03 | 37.98000 | 22.85003 | 38080 ft | 416 kts | 305° |
| 2026-05-06 19:03 | 38.01338 | 22.79087 | 38063 ft | 415 kts | 305° |
| 2026-05-06 19:04 | 38.04702 | 22.73160 | 38080 ft | 413 kts | 305° |
| 2026-05-06 19:04 | 38.08064 | 22.67251 | 38086 ft | 412 kts | 305° |
| 2026-05-06 19:05 | 38.11417 | 22.61355 | 38077 ft | 411 kts | 305° |
| 2026-05-06 19:05 | 38.14761 | 22.55466 | 38085 ft | 411 kts | 305° |
| 2026-05-06 19:06 | 38.18074 | 22.49620 | 38085 ft | 410 kts | 304° |
| 2026-05-06 19:06 | 38.21406 | 22.43731 | 38093 ft | 410 kts | 304° |
| 2026-05-06 19:07 | 38.24734 | 22.37838 | 38096 ft | 410 kts | 304° |
| 2026-05-06 19:07 | 38.28062 | 22.31933 | 38085 ft | 411 kts | 304° |
| 2026-05-06 19:08 | 38.31370 | 22.26055 | 38100 ft | 411 kts | 304° |
| 2026-05-06 19:08 | 38.34701 | 22.20124 | 38095 ft | 412 kts | 304° |
| 2026-05-06 19:09 | 38.38029 | 22.14187 | 38088 ft | 412 kts | 304° |
| 2026-05-06 19:09 | 38.41337 | 22.08277 | 38093 ft | 412 kts | 304° |
| 2026-05-06 19:10 | 38.44668 | 22.02314 | 38098 ft | 413 kts | 304° |
| 2026-05-06 19:10 | 38.48004 | 21.96329 | 38107 ft | 415 kts | 304° |
| 2026-05-06 19:11 | 38.51348 | 21.90322 | 38100 ft | 415 kts | 304° |
| 2026-05-06 19:11 | 38.54684 | 21.84318 | 38104 ft | 415 kts | 304° |
| 2026-05-06 19:12 | 38.58003 | 21.78331 | 38104 ft | 416 kts | 305° |
| 2026-05-06 19:12 | 38.61343 | 21.72295 | 38115 ft | 416 kts | 304° |
| 2026-05-06 19:13 | 38.64683 | 21.66251 | 38112 ft | 416 kts | 305° |
| 2026-05-06 19:13 | 38.68008 | 21.60222 | 38124 ft | 413 kts | 304° |
| 2026-05-06 19:14 | 38.71315 | 21.54213 | 38131 ft | 413 kts | 304° |
| 2026-05-06 19:14 | 38.74594 | 21.48244 | 38121 ft | 412 kts | 304° |
| 2026-05-06 19:15 | 38.77884 | 21.42245 | 38100 ft | 411 kts | 304° |
| 2026-05-06 19:15 | 38.81161 | 21.36257 | 38120 ft | 410 kts | 304° |
| 2026-05-06 19:16 | 38.84428 | 21.30277 | 38102 ft | 409 kts | 304° |
| 2026-05-06 19:16 | 38.87668 | 21.24336 | 38107 ft | 409 kts | 304° |
| 2026-05-06 19:17 | 38.90926 | 21.18350 | 38111 ft | 409 kts | 304° |
| 2026-05-06 19:17 | 38.94185 | 21.12351 | 38123 ft | 409 kts | 304° |
| 2026-05-06 19:18 | 38.97440 | 21.06350 | 38119 ft | 409 kts | 304° |
| 2026-05-06 19:18 | 39.00692 | 21.00342 | 38121 ft | 409 kts | 304° |
| 2026-05-06 19:19 | 39.03919 | 20.94368 | 38122 ft | 409 kts | 304° |
| 2026-05-06 19:19 | 39.07166 | 20.88347 | 38115 ft | 410 kts | 304° |
| 2026-05-06 19:20 | 39.10412 | 20.82318 | 38118 ft | 410 kts | 304° |
| 2026-05-06 19:20 | 39.13654 | 20.76282 | 38120 ft | 410 kts | 304° |
| 2026-05-06 19:21 | 39.16869 | 20.70287 | 38118 ft | 409 kts | 304° |
| 2026-05-06 19:21 | 39.20103 | 20.64245 | 38104 ft | 409 kts | 304° |
| 2026-05-06 19:22 | 39.23332 | 20.58201 | 38102 ft | 409 kts | 304° |
| 2026-05-06 19:22 | 39.26557 | 20.52154 | 38106 ft | 409 kts | 304° |
| 2026-05-06 19:23 | 39.29772 | 20.46111 | 38109 ft | 408 kts | 304° |
| 2026-05-06 19:23 | 39.32963 | 20.40105 | 38099 ft | 408 kts | 304° |
| 2026-05-06 19:24 | 39.36169 | 20.34059 | 38099 ft | 407 kts | 304° |
| 2026-05-06 19:24 | 39.39364 | 20.28021 | 38101 ft | 407 kts | 304° |
| 2026-05-06 19:25 | 39.42551 | 20.21988 | 38103 ft | 406 kts | 304° |
| 2026-05-06 19:25 | 39.45707 | 20.16002 | 38089 ft | 405 kts | 304° |
| 2026-05-06 19:26 | 39.48876 | 20.09979 | 38089 ft | 404 kts | 304° |
| 2026-05-06 19:26 | 39.52036 | 20.03964 | 38097 ft | 404 kts | 304° |
| 2026-05-06 19:27 | 39.55192 | 19.97944 | 38100 ft | 404 kts | 304° |
| 2026-05-06 19:27 | 39.58330 | 19.91947 | 38098 ft | 405 kts | 304° |
| 2026-05-06 19:28 | 39.61490 | 19.85896 | 38109 ft | 406 kts | 304° |
| 2026-05-06 19:28 | 39.64655 | 19.79824 | 38115 ft | 407 kts | 304° |
| 2026-05-06 19:29 | 39.67825 | 19.73731 | 38094 ft | 408 kts | 303° |
| 2026-05-06 19:29 | 39.70996 | 19.67624 | 38104 ft | 408 kts | 303° |
| 2026-05-06 19:30 | 39.74147 | 19.61543 | 38087 ft | 409 kts | 303° |
| 2026-05-06 19:30 | 39.77318 | 19.55413 | 38094 ft | 409 kts | 303° |
| 2026-05-06 19:31 | 39.80487 | 19.49274 | 38076 ft | 409 kts | 303° |
| 2026-05-06 19:31 | 39.85234 | 19.40066 | 38084 ft | 408 kts | 303° |
| 2026-05-06 19:32 | 39.88367 | 19.33964 | 38082 ft | 408 kts | 303° |
| 2026-05-06 19:32 | 39.91517 | 19.27816 | 38081 ft | 408 kts | 303° |
| 2026-05-06 19:33 | 39.94661 | 19.21670 | 38098 ft | 407 kts | 302° |
| 2026-05-06 19:33 | 39.97800 | 19.15525 | 38082 ft | 407 kts | 302° |
| 2026-05-06 19:34 | 40.00929 | 19.09386 | 38082 ft | 406 kts | 302° |
| 2026-05-06 19:34 | 40.04028 | 19.03297 | 38070 ft | 405 kts | 302° |
| 2026-05-06 19:35 | 40.07132 | 18.97181 | 38070 ft | 403 kts | 302° |
| 2026-05-06 19:35 | 40.10220 | 18.91073 | 38070 ft | 402 kts | 302° |
| 2026-05-06 19:36 | 40.13293 | 18.84980 | 38069 ft | 401 kts | 302° |
| 2026-05-06 19:36 | 40.16335 | 18.78938 | 38062 ft | 400 kts | 302° |
| 2026-05-06 19:37 | 40.19390 | 18.72856 | 38066 ft | 400 kts | 301° |
| 2026-05-06 19:37 | 40.22440 | 18.66781 | 38060 ft | 399 kts | 301° |
| 2026-05-06 19:38 | 40.25483 | 18.60697 | 38079 ft | 399 kts | 301° |
| 2026-05-06 19:38 | 40.28506 | 18.54646 | 38060 ft | 400 kts | 301° |
| 2026-05-06 19:39 | 40.31548 | 18.48548 | 38060 ft | 400 kts | 301° |
| 2026-05-06 19:39 | 40.34587 | 18.42442 | 38071 ft | 400 kts | 300° |
| 2026-05-06 19:40 | 40.37624 | 18.36328 | 38062 ft | 400 kts | 300° |
| 2026-05-06 19:40 | 40.40636 | 18.30251 | 38062 ft | 400 kts | 300° |
| 2026-05-06 19:41 | 40.43668 | 18.24125 | 38063 ft | 400 kts | 300° |
| 2026-05-06 19:41 | 40.46695 | 18.17993 | 38061 ft | 400 kts | 300° |
| 2026-05-06 19:42 | 40.49721 | 18.11855 | 38045 ft | 400 kts | 300° |
| 2026-05-06 19:42 | 40.52723 | 18.05750 | 38047 ft | 400 kts | 300° |
| 2026-05-06 19:43 | 40.55743 | 17.99599 | 38049 ft | 400 kts | 300° |
| 2026-05-06 19:43 | 40.58759 | 17.93442 | 38054 ft | 401 kts | 300° |
| 2026-05-06 19:44 | 40.61773 | 17.87277 | 38047 ft | 400 kts | 300° |
| 2026-05-06 19:44 | 40.64783 | 17.81109 | 38030 ft | 400 kts | 300° |
| 2026-05-06 19:45 | 40.67765 | 17.74986 | 38033 ft | 400 kts | 300° |
| 2026-05-06 19:45 | 40.70761 | 17.68823 | 38032 ft | 400 kts | 299° |
| 2026-05-06 19:46 | 40.73755 | 17.62648 | 38036 ft | 400 kts | 299° |
| 2026-05-06 19:46 | 40.76750 | 17.56462 | 38032 ft | 400 kts | 299° |
| 2026-05-06 19:47 | 40.79744 | 17.50264 | 38022 ft | 401 kts | 299° |
| 2026-05-06 19:47 | 40.82718 | 17.44095 | 38023 ft | 401 kts | 299° |
| 2026-05-06 19:48 | 40.85712 | 17.37874 | 38015 ft | 402 kts | 298° |
| 2026-05-06 19:48 | 40.88709 | 17.31633 | 38037 ft | 403 kts | 298° |
| 2026-05-06 19:49 | 40.91711 | 17.25368 | 38027 ft | 404 kts | 298° |
| 2026-05-06 19:49 | 40.94696 | 17.19127 | 38034 ft | 404 kts | 298° |
| 2026-05-06 19:50 | 40.97702 | 17.12828 | 38012 ft | 405 kts | 298° |
| 2026-05-06 19:50 | 41.00710 | 17.06513 | 38004 ft | 406 kts | 298° |
| 2026-05-06 19:51 | 41.03718 | 17.00185 | 38005 ft | 406 kts | 298° |
| 2026-05-06 19:51 | 41.06704 | 16.93888 | 38006 ft | 407 kts | 298° |
| 2026-05-06 19:52 | 41.09708 | 16.87542 | 38005 ft | 407 kts | 298° |
| 2026-05-06 19:52 | 41.12713 | 16.81181 | 37996 ft | 407 kts | 298° |
| 2026-05-06 19:53 | 41.15748 | 16.74842 | 37989 ft | 407 kts | 300° |
| 2026-05-06 19:53 | 41.18965 | 16.68651 | 38018 ft | 408 kts | 301° |
| 2026-05-06 19:54 | 41.22192 | 16.62520 | 38003 ft | 407 kts | 301° |
| 2026-05-06 19:54 | 41.25416 | 16.56335 | 37990 ft | 407 kts | 300° |
| 2026-05-06 19:55 | 41.28619 | 16.50140 | 37987 ft | 406 kts | 300° |
| 2026-05-06 19:55 | 41.31807 | 16.43949 | 37987 ft | 405 kts | 300° |
| 2026-05-06 19:56 | 41.34965 | 16.37801 | 37986 ft | 405 kts | 300° |
| 2026-05-06 19:56 | 41.38138 | 16.31612 | 37986 ft | 405 kts | 300° |
| 2026-05-06 19:57 | 41.41309 | 16.25414 | 37982 ft | 405 kts | 300° |
| 2026-05-06 19:57 | 41.44447 | 16.19187 | 37977 ft | 404 kts | 298° |
| 2026-05-06 19:58 | 41.47473 | 16.12873 | 37992 ft | 404 kts | 297° |
| 2026-05-06 19:58 | 41.50462 | 16.06584 | 37973 ft | 405 kts | 298° |
| 2026-05-06 19:59 | 41.53482 | 16.00248 | 37972 ft | 405 kts | 298° |
| 2026-05-06 19:59 | 41.56513 | 15.93901 | 37973 ft | 406 kts | 297° |
| 2026-05-06 20:00 | 41.59544 | 15.87536 | 37969 ft | 406 kts | 297° |
| 2026-05-06 20:00 | 41.62559 | 15.81196 | 37970 ft | 408 kts | 297° |
| 2026-05-06 20:01 | 41.65599 | 15.74792 | 37972 ft | 409 kts | 297° |
| 2026-05-06 20:01 | 41.68649 | 15.68355 | 37968 ft | 410 kts | 297° |
| 2026-05-06 20:02 | 41.71701 | 15.61898 | 37967 ft | 411 kts | 297° |
| 2026-05-06 20:02 | 41.74758 | 15.55416 | 37970 ft | 413 kts | 297° |
| 2026-05-06 20:03 | 41.77826 | 15.48896 | 37974 ft | 414 kts | 297° |
| 2026-05-06 20:03 | 41.80897 | 15.42359 | 37966 ft | 414 kts | 297° |
| 2026-05-06 20:04 | 41.83943 | 15.35859 | 37951 ft | 414 kts | 297° |
| 2026-05-06 20:04 | 41.87001 | 15.29321 | 37944 ft | 414 kts | 297° |
| 2026-05-06 20:05 | 41.90055 | 15.22776 | 37941 ft | 413 kts | 297° |
| 2026-05-06 20:05 | 41.93100 | 15.16235 | 37950 ft | 413 kts | 297° |
| 2026-05-06 20:06 | 41.96140 | 15.09690 | 37947 ft | 413 kts | 297° |
| 2026-05-06 20:06 | 41.99157 | 15.03182 | 37948 ft | 413 kts | 297° |
| 2026-05-06 20:07 | 42.02193 | 14.96618 | 37951 ft | 413 kts | 297° |
| 2026-05-06 20:07 | 42.05226 | 14.90046 | 37960 ft | 414 kts | 297° |
| 2026-05-06 20:08 | 42.08263 | 14.83450 | 37949 ft | 415 kts | 297° |
| 2026-05-06 20:08 | 42.11301 | 14.76839 | 37933 ft | 415 kts | 297° |
| 2026-05-06 20:09 | 42.14317 | 14.70263 | 37933 ft | 416 kts | 296° |
| 2026-05-06 20:09 | 42.17350 | 14.63632 | 37949 ft | 416 kts | 296° |
| 2026-05-06 20:10 | 42.20381 | 14.56992 | 37945 ft | 416 kts | 296° |
| 2026-05-06 20:10 | 42.23410 | 14.50342 | 37931 ft | 416 kts | 296° |
| 2026-05-06 20:11 | 42.26436 | 14.43684 | 37954 ft | 416 kts | 296° |
| 2026-05-06 20:11 | 42.29455 | 14.37024 | 37942 ft | 416 kts | 296° |
| 2026-05-06 20:12 | 42.32452 | 14.30401 | 37938 ft | 416 kts | 296° |
| 2026-05-06 20:12 | 42.35465 | 14.23724 | 37943 ft | 416 kts | 296° |
| 2026-05-06 20:13 | 42.38475 | 14.17043 | 37945 ft | 416 kts | 296° |
| 2026-05-06 20:13 | 42.41480 | 14.10357 | 37938 ft | 416 kts | 296° |
| 2026-05-06 20:14 | 42.44481 | 14.03665 | 37953 ft | 416 kts | 296° |
| 2026-05-06 20:14 | 42.47476 | 13.96974 | 37958 ft | 416 kts | 296° |
| 2026-05-06 20:15 | 42.50450 | 13.90311 | 37950 ft | 416 kts | 296° |
| 2026-05-06 20:15 | 42.53437 | 13.83605 | 37973 ft | 416 kts | 295° |
| 2026-05-06 20:16 | 42.56423 | 13.76884 | 37977 ft | 417 kts | 295° |
| 2026-05-06 20:16 | 42.59414 | 13.70138 | 37966 ft | 417 kts | 295° |
| 2026-05-06 20:17 | 42.62406 | 13.63373 | 37979 ft | 419 kts | 295° |
| 2026-05-06 20:17 | 42.65385 | 13.56622 | 37980 ft | 420 kts | 295° |
| 2026-05-06 20:18 | 42.68389 | 13.49800 | 37976 ft | 421 kts | 295° |
| 2026-05-06 20:18 | 42.71391 | 13.42965 | 37991 ft | 421 kts | 296° |
| 2026-05-06 20:19 | 42.74384 | 13.36142 | 37989 ft | 419 kts | 295° |
| 2026-05-06 20:19 | 42.77353 | 13.29353 | 38000 ft | 416 kts | 295° |
| 2026-05-06 20:20 | 42.80279 | 13.22644 | 38013 ft | 414 kts | 295° |
| 2026-05-06 20:20 | 42.83223 | 13.15881 | 37997 ft | 415 kts | 295° |
| 2026-05-06 20:21 | 42.86168 | 13.09097 | 37981 ft | 417 kts | 295° |
| 2026-05-06 20:21 | 42.89124 | 13.02274 | 38010 ft | 418 kts | 295° |
| 2026-05-06 20:22 | 42.92079 | 12.95437 | 38002 ft | 418 kts | 295° |
| 2026-05-06 20:22 | 42.95027 | 12.88604 | 37989 ft | 418 kts | 295° |
| 2026-05-06 20:23 | 42.97947 | 12.81819 | 37978 ft | 416 kts | 295° |
| 2026-05-06 20:23 | 43.00868 | 12.75017 | 37993 ft | 414 kts | 294° |
| 2026-05-06 20:24 | 43.03774 | 12.68228 | 37994 ft | 413 kts | 294° |
| 2026-05-06 20:24 | 43.06672 | 12.61442 | 37991 ft | 414 kts | 294° |
| 2026-05-06 20:25 | 43.09568 | 12.54648 | 37993 ft | 413 kts | 294° |
| 2026-05-06 20:25 | 43.12436 | 12.47905 | 37995 ft | 412 kts | 294° |
| 2026-05-06 20:26 | 43.15316 | 12.41116 | 37993 ft | 412 kts | 294° |
| 2026-05-06 20:26 | 43.18199 | 12.34304 | 37995 ft | 414 kts | 294° |
| 2026-05-06 20:27 | 43.21086 | 12.27465 | 37990 ft | 415 kts | 294° |
| 2026-05-06 20:27 | 43.23975 | 12.20609 | 37995 ft | 416 kts | 294° |
| 2026-05-06 20:28 | 43.26864 | 12.13736 | 37978 ft | 416 kts | 294° |
| 2026-05-06 20:28 | 43.29738 | 12.06881 | 37975 ft | 418 kts | 294° |
| 2026-05-06 20:29 | 43.32631 | 11.99965 | 37956 ft | 418 kts | 294° |
| 2026-05-06 20:29 | 43.35515 | 11.93057 | 37992 ft | 417 kts | 294° |
| 2026-05-06 20:30 | 43.39836 | 11.82668 | 37974 ft | 418 kts | 294° |
| 2026-05-06 20:31 | 43.42695 | 11.75777 | 37989 ft | 417 kts | 293° |
| 2026-05-06 20:31 | 43.45569 | 11.68832 | 37975 ft | 417 kts | 293° |
| 2026-05-06 20:32 | 43.48440 | 11.61876 | 37988 ft | 418 kts | 293° |
| 2026-05-06 20:32 | 43.51305 | 11.54921 | 37979 ft | 417 kts | 293° |
| 2026-05-06 20:33 | 43.54162 | 11.47965 | 37970 ft | 417 kts | 293° |
| 2026-05-06 20:33 | 43.56989 | 11.41069 | 37978 ft | 415 kts | 293° |
| 2026-05-06 20:34 | 43.59823 | 11.34136 | 37971 ft | 415 kts | 293° |
| 2026-05-06 20:34 | 43.62651 | 11.27201 | 37965 ft | 415 kts | 293° |
| 2026-05-06 20:35 | 43.65476 | 11.20256 | 37983 ft | 415 kts | 293° |
| 2026-05-06 20:35 | 43.68278 | 11.13353 | 38028 ft | 415 kts | 292° |
| 2026-05-06 20:36 | 43.71101 | 11.06378 | 37998 ft | 416 kts | 292° |
| 2026-05-06 20:36 | 43.73928 | 10.99379 | 37984 ft | 417 kts | 292° |
| 2026-05-06 20:37 | 43.76753 | 10.92367 | 37983 ft | 418 kts | 292° |
| 2026-05-06 20:37 | 43.79577 | 10.85342 | 37986 ft | 418 kts | 292° |
| 2026-05-06 20:38 | 43.82378 | 10.78357 | 37975 ft | 418 kts | 292° |
| 2026-05-06 20:38 | 43.85196 | 10.71313 | 37975 ft | 418 kts | 292° |
| 2026-05-06 20:39 | 43.88012 | 10.64255 | 37974 ft | 418 kts | 292° |
| 2026-05-06 20:39 | 43.90823 | 10.57193 | 38011 ft | 419 kts | 292° |
| 2026-05-06 20:40 | 43.93636 | 10.50104 | 37984 ft | 420 kts | 292° |
| 2026-05-06 20:40 | 43.96434 | 10.43041 | 37987 ft | 421 kts | 292° |
| 2026-05-06 20:41 | 43.99248 | 10.35914 | 37996 ft | 420 kts | 292° |
| 2026-05-06 20:41 | 44.02053 | 10.28794 | 37978 ft | 420 kts | 292° |
| 2026-05-06 20:42 | 44.04386 | 10.22861 | 37975 ft | 421 kts | 292° |
| 2026-05-06 20:42 | 44.07649 | 10.14539 | 37948 ft | 422 kts | 292° |
| 2026-05-06 20:43 | 44.10455 | 10.07364 | 37970 ft | 422 kts | 292° |
| 2026-05-06 20:43 | 44.12783 | 10.01395 | 37969 ft | 422 kts | 292° |
| 2026-05-06 20:44 | 44.15585 | 9.94197 | 37966 ft | 423 kts | 292° |
| 2026-05-06 20:44 | 44.18380 | 9.86997 | 37967 ft | 422 kts | 292° |
| 2026-05-06 20:45 | 44.21173 | 9.79790 | 37961 ft | 423 kts | 292° |
| 2026-05-06 20:45 | 44.23942 | 9.72613 | 37967 ft | 423 kts | 291° |
| 2026-05-06 20:46 | 44.26732 | 9.65368 | 37952 ft | 424 kts | 291° |
| 2026-05-06 20:46 | 44.29517 | 9.58119 | 37950 ft | 424 kts | 291° |
| 2026-05-06 20:47 | 44.32301 | 9.50855 | 37934 ft | 424 kts | 291° |
| 2026-05-06 20:47 | 44.35080 | 9.43585 | 37952 ft | 425 kts | 292° |
| 2026-05-06 20:48 | 44.37842 | 9.36339 | 37934 ft | 425 kts | 292° |
| 2026-05-06 20:48 | 44.40618 | 9.29040 | 37949 ft | 425 kts | 292° |
| 2026-05-06 20:49 | 44.43394 | 9.21718 | 37939 ft | 426 kts | 291° |
| 2026-05-06 20:49 | 44.46171 | 9.14375 | 37933 ft | 427 kts | 291° |
| 2026-05-06 20:50 | 44.48929 | 9.07064 | 37944 ft | 428 kts | 292° |
| 2026-05-06 20:50 | 44.51707 | 8.99680 | 37915 ft | 428 kts | 292° |
| 2026-05-06 20:51 | 44.54477 | 8.92301 | 37928 ft | 428 kts | 292° |
| 2026-05-06 20:51 | 44.57238 | 8.84925 | 37941 ft | 427 kts | 292° |
| 2026-05-06 20:52 | 44.59979 | 8.77578 | 37925 ft | 428 kts | 292° |
| 2026-05-06 20:52 | 44.62737 | 8.70169 | 37948 ft | 429 kts | 292° |
| 2026-05-06 20:53 | 44.65495 | 8.62738 | 37901 ft | 429 kts | 292° |
| 2026-05-06 20:53 | 44.68251 | 8.55295 | 37901 ft | 429 kts | 292° |
| 2026-05-06 20:54 | 44.70983 | 8.47896 | 37881 ft | 429 kts | 292° |
| 2026-05-06 20:54 | 44.73728 | 8.40442 | 37889 ft | 429 kts | 292° |
| 2026-05-06 20:55 | 44.76468 | 8.32980 | 37898 ft | 430 kts | 292° |
| 2026-05-06 20:55 | 44.79204 | 8.25510 | 37882 ft | 429 kts | 292° |
| 2026-05-06 20:56 | 44.81935 | 8.18036 | 37871 ft | 429 kts | 292° |
| 2026-05-06 20:56 | 44.84633 | 8.10626 | 37882 ft | 428 kts | 292° |
| 2026-05-06 20:57 | 44.87342 | 8.03168 | 37870 ft | 427 kts | 292° |
| 2026-05-06 20:57 | 44.90040 | 7.95720 | 37879 ft | 427 kts | 292° |
| 2026-05-06 20:58 | 44.92730 | 7.88277 | 37882 ft | 426 kts | 292° |
| 2026-05-06 20:58 | 44.95411 | 7.80836 | 37868 ft | 425 kts | 292° |
| 2026-05-06 20:59 | 44.98063 | 7.73456 | 37871 ft | 424 kts | 292° |
| 2026-05-06 20:59 | 45.00726 | 7.66024 | 37887 ft | 424 kts | 292° |
| 2026-05-06 21:00 | 45.03383 | 7.58587 | 37880 ft | 424 kts | 291° |
| 2026-05-06 21:00 | 45.06045 | 7.51112 | 37570 ft | 430 kts | 291° |
| 2026-05-06 21:00 | 45.07369 | 7.47390 | 37386 ft | 428 kts | 291° |
| 2026-05-06 21:01 | 45.08700 | 7.43645 | 37133 ft | 425 kts | 291° |
| 2026-05-06 21:01 | 45.10026 | 7.39910 | 36878 ft | 424 kts | 291° |
| 2026-05-06 21:01 | 45.11345 | 7.36188 | 36408 ft | 423 kts | 291° |
| 2026-05-06 21:01 | 45.12658 | 7.32474 | 35906 ft | 421 kts | 291° |
| 2026-05-06 21:02 | 45.13968 | 7.28764 | 35277 ft | 422 kts | 290° |
| 2026-05-06 21:02 | 45.15280 | 7.25039 | 34666 ft | 423 kts | 290° |
| 2026-05-06 21:02 | 45.16597 | 7.21301 | 34036 ft | 425 kts | 290° |
| 2026-05-06 21:02 | 45.17922 | 7.17532 | 33246 ft | 428 kts | 290° |
| 2026-05-06 21:03 | 45.19201 | 7.13735 | 32525 ft | 426 kts | 287° |
| 2026-05-06 21:03 | 45.20342 | 7.09940 | 31849 ft | 423 kts | 285° |
| 2026-05-06 21:03 | 45.21443 | 7.06080 | 31130 ft | 422 kts | 285° |
| 2026-05-06 21:03 | 45.22530 | 7.02203 | 30434 ft | 424 kts | 284° |
| 2026-05-06 21:04 | 45.23616 | 6.98341 | 29903 ft | 420 kts | 284° |
| 2026-05-06 21:04 | 45.24702 | 6.94516 | 29306 ft | 416 kts | 286° |
| 2026-05-06 21:04 | 45.25783 | 6.90733 | 28738 ft | 411 kts | 286° |
| 2026-05-06 21:04 | 45.26849 | 6.86996 | 28197 ft | 405 kts | 287° |
| 2026-05-06 21:05 | 45.27900 | 6.83315 | 27687 ft | 399 kts | 287° |
| 2026-05-06 21:05 | 45.28940 | 6.79674 | 26992 ft | 399 kts | 287° |
| 2026-05-06 21:05 | 45.29970 | 6.76062 | 26171 ft | 401 kts | 288° |
| 2026-05-06 21:05 | 45.31013 | 6.72401 | 25526 ft | 399 kts | 288° |
| 2026-05-06 21:06 | 45.32048 | 6.68769 | 25030 ft | 394 kts | 288° |
| 2026-05-06 21:06 | 45.33068 | 6.65184 | 24537 ft | 390 kts | 288° |
| 2026-05-06 21:06 | 45.34078 | 6.61624 | 24006 ft | 387 kts | 289° |
| 2026-05-06 21:06 | 45.35080 | 6.58089 | 23435 ft | 385 kts | 290° |
| 2026-05-06 21:07 | 45.36079 | 6.54559 | 22674 ft | 385 kts | 290° |
| 2026-05-06 21:07 | 45.37077 | 6.51029 | 22095 ft | 383 kts | 290° |
| 2026-05-06 21:07 | 45.38005 | 6.47505 | 21564 ft | 377 kts | 284° |
| 2026-05-06 21:07 | 45.38473 | 6.43917 | 21012 ft | 372 kts | 274° |
| 2026-05-06 21:08 | 45.38539 | 6.40262 | 20450 ft | 368 kts | 265° |
| 2026-05-06 21:08 | 45.38205 | 6.36670 | 19931 ft | 365 kts | 260° |
| 2026-05-06 21:08 | 45.37782 | 6.33123 | 19424 ft | 362 kts | 259° |
| 2026-05-06 21:08 | 45.37352 | 6.29602 | 18914 ft | 360 kts | 259° |
| 2026-05-06 21:09 | 45.37087 | 6.26075 | 18430 ft | 359 kts | 270° |
| 2026-05-06 21:09 | 45.37331 | 6.22516 | 17495 ft | 368 kts | 279° |
| 2026-05-06 21:09 | 45.37841 | 6.18901 | 16516 ft | 376 kts | 280° |
| 2026-05-06 21:09 | 45.38382 | 6.15263 | 15798 ft | 375 kts | 281° |
| 2026-05-06 21:10 | 45.38916 | 6.11701 | 15267 ft | 371 kts | 281° |
| 2026-05-06 21:10 | 45.39446 | 6.08131 | 14720 ft | 368 kts | 281° |
| 2026-05-06 21:10 | 45.39967 | 6.04580 | 14040 ft | 367 kts | 281° |
| 2026-05-06 21:10 | 45.40486 | 6.00999 | 13160 ft | 372 kts | 281° |
| 2026-05-06 21:11 | 45.41005 | 5.97394 | 12436 ft | 371 kts | 281° |
| 2026-05-06 21:11 | 45.41516 | 5.93820 | 11796 ft | 367 kts | 281° |
| 2026-05-06 21:11 | 45.42021 | 5.90273 | 11196 ft | 364 kts | 281° |
| 2026-05-06 21:11 | 45.42520 | 5.86752 | 10707 ft | 359 kts | 281° |
| 2026-05-06 21:12 | 45.43000 | 5.83377 | 10592 ft | 337 kts | 280° |
| 2026-05-06 21:12 | 45.43442 | 5.80246 | 10475 ft | 318 kts | 280° |
| 2026-05-06 21:12 | 45.43863 | 5.77246 | 10357 ft | 301 kts | 280° |
| 2026-05-06 21:12 | 45.44263 | 5.74406 | 10249 ft | 285 kts | 280° |
| 2026-05-06 21:13 | 45.44643 | 5.71708 | 10135 ft | 271 kts | 280° |
| 2026-05-06 21:13 | 45.45009 | 5.69103 | 9821 ft | 266 kts | 280° |
| 2026-05-06 21:13 | 45.45369 | 5.66523 | 9401 ft | 266 kts | 280° |
| 2026-05-06 21:13 | 45.45729 | 5.63943 | 8979 ft | 265 kts | 280° |
| 2026-05-06 21:14 | 45.46088 | 5.61369 | 8631 ft | 266 kts | 280° |
| 2026-05-06 21:14 | 45.46446 | 5.58796 | 8386 ft | 263 kts | 280° |
| 2026-05-06 21:14 | 45.46801 | 5.56246 | 8136 ft | 262 kts | 280° |
| 2026-05-06 21:14 | 45.47153 | 5.53707 | 7859 ft | 261 kts | 280° |
| 2026-05-06 21:15 | 45.47500 | 5.51202 | 7596 ft | 261 kts | 279° |
| 2026-05-06 21:15 | 45.47849 | 5.48673 | 7331 ft | 260 kts | 279° |
| 2026-05-06 21:15 | 45.48197 | 5.46151 | 7061 ft | 259 kts | 279° |
| 2026-05-06 21:15 | 45.48545 | 5.43628 | 6773 ft | 260 kts | 280° |
| 2026-05-06 21:16 | 45.48892 | 5.41107 | 6496 ft | 260 kts | 280° |
| 2026-05-06 21:16 | 45.49239 | 5.38574 | 6198 ft | 260 kts | 280° |
| 2026-05-06 21:16 | 45.49587 | 5.36041 | 5908 ft | 260 kts | 280° |
| 2026-05-06 21:16 | 45.49933 | 5.33518 | 5653 ft | 259 kts | 280° |
| 2026-05-06 21:17 | 45.50275 | 5.31011 | 5405 ft | 257 kts | 280° |
| 2026-05-06 21:17 | 45.50611 | 5.28549 | 5198 ft | 254 kts | 280° |
| 2026-05-06 21:17 | 45.50945 | 5.26124 | 5124 ft | 246 kts | 280° |
| 2026-05-06 21:17 | 45.51264 | 5.23749 | 4972 ft | 241 kts | 280° |
| 2026-05-06 21:18 | 45.51577 | 5.21442 | 4871 ft | 234 kts | 280° |
| 2026-05-06 21:18 | 45.51880 | 5.19184 | 4666 ft | 232 kts | 280° |
| 2026-05-06 21:18 | 45.52187 | 5.16921 | 4437 ft | 231 kts | 280° |
| 2026-05-06 21:18 | 45.52491 | 5.14679 | 4235 ft | 230 kts | 280° |
| 2026-05-06 21:19 | 45.52978 | 5.12560 | 4011 ft | 230 kts | 303° |
| 2026-05-06 21:19 | 45.54197 | 5.11209 | 3996 ft | 219 kts | 341° |
| 2026-05-06 21:19 | 45.55656 | 5.10901 | 3908 ft | 208 kts | 355° |
| 2026-05-06 21:19 | 45.57095 | 5.10759 | 3639 ft | 207 kts | 354° |
| 2026-05-06 21:20 | 45.58523 | 5.10582 | 3346 ft | 206 kts | 353° |
| 2026-05-06 21:20 | 45.59937 | 5.10401 | 3085 ft | 201 kts | 354° |
| 2026-05-06 21:20 | 45.61310 | 5.10224 | 2818 ft | 195 kts | 354° |
| 2026-05-06 21:20 | 45.62651 | 5.10066 | 2482 ft | 190 kts | 354° |
| 2026-05-06 21:21 | 45.63917 | 5.09902 | 2223 ft | 177 kts | 354° |
| 2026-05-06 21:21 | 45.65076 | 5.09760 | 2030 ft | 161 kts | 354° |
| 2026-05-06 21:21 | 45.66134 | 5.09638 | 1817 ft | 147 kts | 355° |
| 2026-05-06 21:21 | 45.67150 | 5.09509 | 1608 ft | 146 kts | 355° |
| 2026-05-06 21:22 | 45.68156 | 5.09384 | 1430 ft | 145 kts | 355° |
| 2026-05-06 21:22 | 45.69160 | 5.09270 | 1256 ft | 145 kts | 355° |
| 2026-05-06 21:22 | 45.70167 | 5.09138 | 1061 ft | 146 kts | 355° |
| 2026-05-06 21:22 | 45.71175 | 5.09018 | 841 ft | 145 kts | 356° |
| 2026-05-06 21:23 | 45.72071 | 5.08914 | 809 ft | 102 kts | 355° |
| 2026-05-06 21:23 | 45.72572 | 5.08851 | 791 ft | 46 kts | 355° |
| 2026-05-06 21:23 | 45.72860 | 5.08816 | 791 ft | 26 kts | 355° |
| 2026-05-06 21:23 | 45.72923 | 5.08786 | 792 ft | 8 kts | 318° |
| 2026-05-06 21:24 | 45.72951 | 5.08691 | 791 ft | 13 kts | 274° |
| 2026-05-06 21:24 | 45.72945 | 5.08560 | 790 ft | 14 kts | 265° |
| 2026-05-06 21:24 | 45.72929 | 5.08424 | 789 ft | 14 kts | 244° |
| 2026-05-06 21:24 | 45.72852 | 5.08355 | 789 ft | 14 kts | 183° |
| 2026-05-06 21:25 | 45.72743 | 5.08365 | 790 ft | 17 kts | 175° |
| 2026-05-06 21:25 | 45.72623 | 5.08380 | 792 ft | 17 kts | 175° |
| 2026-05-06 21:25 | 45.72506 | 5.08395 | 795 ft | 17 kts | 175° |
| 2026-05-06 21:25 | 45.72389 | 5.08409 | 797 ft | 17 kts | 175° |
| 2026-05-06 21:26 | 45.72277 | 5.08423 | 798 ft | 16 kts | 175° |
| 2026-05-06 21:26 | 45.72169 | 5.08436 | 801 ft | 15 kts | 175° |
| 2026-05-06 21:26 | 45.72054 | 5.08449 | 801 ft | 19 kts | 175° |
| 2026-05-06 21:26 | 45.71901 | 5.08468 | 801 ft | 24 kts | 175° |
| 2026-05-06 21:27 | 45.71732 | 5.08489 | 801 ft | 25 kts | 175° |
| 2026-05-06 21:27 | 45.71567 | 5.08509 | 802 ft | 23 kts | 175° |
| 2026-05-06 21:27 | 45.71463 | 5.08520 | 805 ft | 11 kts | 180° |
| 2026-05-06 21:27 | 45.71416 | 5.08449 | 805 ft | 11 kts | 262° |
| 2026-05-06 21:28 | 45.71414 | 5.08422 | 804 ft | 1 kts | 278° |
| 2026-05-06 21:28 | 45.71422 | 5.08415 | 804 ft | 3 kts | 330° |
| 2026-05-06 21:28 | 45.71446 | 5.08409 | 803 ft | 4 kts | 356° |
| 2026-05-06 21:28 | 45.71475 | 5.08406 | 801 ft | 3 kts | 355° |
| 2026-05-06 21:29 | 45.71489 | 5.08404 | 800 ft | 0 kts | 355° |